createdAt,value
2022-12-31T00:02:39.434Z,2.40
2022-12-31T00:05:41.120Z,2.50
2022-12-31T00:08:43.665Z,2.30
2022-12-31T00:11:45.373Z,2.10
2022-12-31T00:14:48.038Z,2.00
2022-12-31T00:17:49.660Z,2.03
2022-12-31T00:20:51.299Z,2.00
2022-12-31T00:23:53.295Z,2.47
2022-12-31T00:26:54.971Z,1.70
2022-12-31T00:30:00.942Z,1.83
2022-12-31T00:33:06.008Z,1.90
2022-12-31T00:36:11.078Z,1.90
2022-12-31T00:39:13.154Z,1.97
2022-12-31T00:42:14.836Z,1.97
2022-12-31T00:45:16.626Z,2.40
2022-12-31T00:48:18.301Z,1.90
2022-12-31T00:51:22.955Z,2.40
2022-12-31T00:54:24.600Z,4.17
2022-12-31T00:57:26.332Z,2.43
2022-12-31T01:00:28.077Z,2.00
2022-12-31T01:03:29.756Z,2.07
2022-12-31T01:06:38.148Z,1.90
2022-12-31T01:09:39.792Z,1.80
2022-12-31T01:12:41.560Z,4.10
2022-12-31T01:15:43.374Z,1.57
2022-12-31T01:18:45.208Z,1.63
2022-12-31T01:21:47.969Z,1.73
2022-12-31T01:24:49.607Z,2.30
2022-12-31T01:27:51.271Z,1.57
2022-12-31T01:30:53.113Z,1.30
2022-12-31T01:33:54.847Z,1.43
2022-12-31T01:36:56.506Z,1.60
2022-12-31T01:39:58.157Z,1.10
2022-12-31T01:42:59.844Z,0.90
2022-12-31T01:46:01.662Z,1.37
2022-12-31T01:49:31.774Z,1.03
2022-12-31T01:52:38.646Z,0.90
2022-12-31T01:55:48.727Z,1.00
2022-12-31T01:58:57.352Z,0.80
2022-12-31T02:02:00.686Z,0.70
2022-12-31T02:05:06.831Z,0.60
2022-12-31T02:08:10.717Z,0.70
2022-12-31T02:11:32.994Z,0.70
2022-12-31T02:14:47.874Z,0.70
2022-12-31T02:18:12.541Z,0.50
2022-12-31T02:21:42.653Z,0.70
2022-12-31T02:25:04.706Z,0.63
2022-12-31T02:28:27.445Z,0.60
2022-12-31T02:31:48.182Z,0.60
2022-12-31T02:34:58.903Z,0.60
2022-12-31T02:38:15.631Z,0.60
2022-12-31T02:41:37.845Z,0.50
2022-12-31T02:44:41.757Z,0.60
2022-12-31T02:47:53.839Z,0.70
2022-12-31T02:51:23.510Z,0.70
2022-12-31T02:54:39.592Z,1.27
2022-12-31T02:58:48.776Z,0.60
2022-12-31T03:02:16.287Z,0.60
2022-12-31T03:05:22.894Z,0.70
2022-12-31T03:08:26.085Z,0.50
2022-12-31T03:11:46.416Z,0.70
2022-12-31T03:14:48.174Z,0.60
2022-12-31T03:18:09.479Z,0.67
2022-12-31T03:21:31.611Z,1.13
2022-12-31T03:24:51.974Z,0.53
2022-12-31T03:27:53.762Z,0.70
2022-12-31T03:31:00.667Z,0.60
2022-12-31T03:34:02.406Z,0.83
2022-12-31T03:37:04.064Z,1.03
2022-12-31T03:40:07.751Z,0.60
2022-12-31T03:43:09.816Z,0.60
2022-12-31T03:46:14.761Z,0.80
2022-12-31T03:49:16.464Z,0.90
2022-12-31T03:52:18.567Z,0.63
2022-12-31T03:55:20.416Z,1.10
2022-12-31T03:58:22.663Z,0.80
2022-12-31T04:01:25.432Z,0.70
2022-12-31T04:04:27.431Z,0.90
2022-12-31T04:07:29.120Z,0.50
2022-12-31T04:10:30.790Z,0.97
2022-12-31T04:13:32.404Z,0.90
2022-12-31T04:16:34.149Z,0.70
2022-12-31T04:19:35.871Z,0.50
2022-12-31T04:22:37.989Z,0.60
2022-12-31T04:25:39.766Z,0.60
2022-12-31T04:28:41.525Z,0.53
2022-12-31T04:31:43.321Z,0.53
2022-12-31T04:34:45.067Z,0.70
2022-12-31T04:37:46.840Z,0.50
2022-12-31T04:41:07.025Z,0.73
2022-12-31T04:44:08.970Z,0.53
2022-12-31T04:47:10.584Z,0.97
2022-12-31T04:50:12.345Z,2.77
2022-12-31T04:53:13.963Z,1.07
2022-12-31T04:56:16.275Z,0.60
2022-12-31T04:59:17.947Z,1.90
2022-12-31T05:02:19.744Z,0.40
2022-12-31T05:05:21.513Z,0.50
2022-12-31T05:08:23.206Z,0.50
2022-12-31T05:11:24.916Z,0.30
2022-12-31T05:14:26.643Z,0.33
2022-12-31T05:17:28.359Z,2.10
2022-12-31T05:20:30.064Z,1.47
2022-12-31T05:23:32.106Z,0.90
2022-12-31T05:26:33.863Z,0.93
2022-12-31T05:29:35.560Z,0.60
2022-12-31T05:32:37.314Z,1.33
2022-12-31T05:35:39.092Z,0.50
2022-12-31T05:38:40.887Z,0.80
2022-12-31T05:41:42.589Z,0.60
2022-12-31T05:44:44.572Z,0.53
2022-12-31T05:47:46.756Z,0.57
2022-12-31T05:50:49.853Z,0.40
2022-12-31T05:53:51.535Z,1.03
2022-12-31T05:56:53.296Z,0.70
2022-12-31T05:59:54.955Z,1.47
2022-12-31T06:02:56.736Z,0.93
2022-12-31T06:06:00.932Z,1.30
2022-12-31T06:09:02.700Z,0.93
2022-12-31T06:12:04.995Z,0.93
2022-12-31T06:15:07.629Z,1.17
2022-12-31T06:18:09.335Z,0.77
2022-12-31T06:21:11.046Z,0.77
2022-12-31T06:24:12.868Z,1.27
2022-12-31T06:27:14.617Z,1.20
2022-12-31T06:30:16.454Z,1.60
2022-12-31T06:33:18.397Z,0.90
2022-12-31T06:36:21.856Z,0.70
2022-12-31T06:39:23.609Z,1.27
2022-12-31T06:42:28.929Z,0.67
2022-12-31T06:45:30.791Z,0.80
2022-12-31T06:48:32.961Z,0.80
2022-12-31T06:51:34.728Z,0.93
2022-12-31T06:54:36.728Z,0.83
2022-12-31T06:57:38.760Z,1.60
2022-12-31T07:00:57.367Z,0.70
2022-12-31T07:04:43.937Z,0.60
2022-12-31T07:08:03.520Z,1.53
2022-12-31T07:11:17.108Z,1.10
2022-12-31T07:14:29.238Z,2.23
2022-12-31T07:17:50.932Z,0.90
2022-12-31T07:20:53.021Z,1.60
2022-12-31T07:23:54.934Z,0.97
2022-12-31T07:27:14.790Z,0.80
2022-12-31T07:30:24.618Z,1.07
2022-12-31T07:33:44.347Z,1.73
2022-12-31T07:37:01.174Z,1.10
2022-12-31T07:40:28.001Z,2.50
2022-12-31T07:43:44.203Z,2.20
2022-12-31T07:46:55.546Z,1.43
2022-12-31T07:49:58.167Z,1.50
2022-12-31T07:53:00.158Z,1.50
2022-12-31T07:56:03.905Z,0.80
2022-12-31T07:59:34.582Z,0.77
2022-12-31T08:03:04.048Z,1.33
2022-12-31T08:06:16.762Z,1.73
2022-12-31T08:09:41.481Z,1.33
2022-12-31T08:12:45.608Z,1.00
2022-12-31T08:15:47.604Z,1.10
2022-12-31T08:18:49.598Z,1.67
2022-12-31T08:22:07.435Z,1.67
2022-12-31T08:25:24.807Z,0.93
2022-12-31T08:28:42.497Z,1.00
2022-12-31T08:32:02.361Z,1.07
2022-12-31T08:35:27.992Z,2.87
2022-12-31T08:43:07.442Z,1.83
2022-12-31T08:46:20.909Z,1.13
2022-12-31T08:49:24.608Z,2.13
2022-12-31T08:52:59.647Z,1.77
2022-12-31T08:56:27.554Z,1.13
2022-12-31T08:59:38.071Z,1.03
2022-12-31T09:02:48.272Z,1.33
2022-12-31T09:06:08.656Z,1.77
2022-12-31T09:09:20.357Z,1.10
2022-12-31T09:12:35.551Z,1.97
2022-12-31T09:15:42.797Z,1.10
2022-12-31T09:18:44.578Z,1.63
2022-12-31T09:21:46.465Z,2.90
2022-12-31T09:24:49.229Z,2.67
2022-12-31T09:28:11.053Z,4.50
2022-12-31T09:31:25.768Z,1.43
2022-12-31T09:34:46.891Z,1.80
2022-12-31T09:37:49.817Z,2.10
2022-12-31T09:41:20.058Z,2.47
2022-12-31T09:44:43.783Z,1.13
2022-12-31T09:48:07.350Z,1.60
2022-12-31T09:51:25.202Z,3.40
2022-12-31T09:54:55.067Z,1.90
2022-12-31T09:58:18.237Z,1.20
2022-12-31T10:01:40.221Z,1.60
2022-12-31T10:05:00.940Z,1.73
2022-12-31T10:08:33.522Z,1.47
2022-12-31T10:12:20.909Z,1.17
2022-12-31T10:16:04.796Z,1.73
2022-12-31T10:19:43.281Z,1.87
2022-12-31T10:23:02.233Z,1.27
2022-12-31T10:26:12.840Z,1.10
2022-12-31T10:29:39.421Z,1.77
2022-12-31T10:33:25.561Z,1.03
2022-12-31T10:36:43.258Z,2.90
2022-12-31T10:40:03.834Z,1.57
2022-12-31T10:43:20.699Z,1.50
2022-12-31T10:46:41.857Z,1.07
2022-12-31T10:49:46.667Z,2.00
2022-12-31T10:53:09.409Z,2.13
2022-12-31T10:56:41.607Z,2.80
2022-12-31T11:00:09.222Z,1.97
2022-12-31T11:03:44.529Z,2.23
2022-12-31T11:06:52.188Z,1.10
2022-12-31T11:10:18.439Z,1.80
2022-12-31T11:13:32.092Z,1.10
2022-12-31T11:16:50.786Z,1.90
2022-12-31T11:20:40.049Z,1.47
2022-12-31T11:24:03.800Z,1.00
2022-12-31T11:27:34.542Z,2.07
2022-12-31T11:31:12.215Z,2.83
2022-12-31T11:34:48.304Z,1.63
2022-12-31T11:38:14.938Z,1.10
2022-12-31T11:41:35.339Z,2.47
2022-12-31T11:44:55.041Z,2.13
2022-12-31T11:48:29.664Z,1.80
2022-12-31T11:51:38.385Z,1.33
2022-12-31T11:55:41.215Z,1.93
2022-12-31T11:58:50.173Z,2.60
2022-12-31T12:02:04.403Z,3.67
2022-12-31T12:05:11.016Z,2.33
2022-12-31T12:08:14.299Z,5.23
2022-12-31T12:11:26.495Z,2.77
2022-12-31T12:14:43.629Z,2.00
2022-12-31T12:17:54.206Z,1.27
2022-12-31T12:21:14.201Z,1.13
2022-12-31T12:24:20.160Z,1.70
2022-12-31T12:27:26.726Z,1.23
2022-12-31T12:30:28.608Z,2.07
2022-12-31T12:33:40.960Z,1.87
2022-12-31T12:36:47.403Z,2.30
2022-12-31T12:39:57.527Z,4.07
2022-12-31T12:42:59.253Z,2.23
2022-12-31T12:46:18.058Z,1.40
2022-12-31T12:49:26.834Z,2.00
2022-12-31T12:52:46.075Z,1.30
2022-12-31T12:55:53.605Z,3.00
2022-12-31T12:59:15.899Z,1.67
2022-12-31T13:02:54.244Z,3.17
2022-12-31T13:06:20.108Z,1.43
2022-12-31T13:09:47.873Z,1.50
2022-12-31T13:13:23.816Z,1.27
2022-12-31T13:16:47.050Z,2.10
2022-12-31T13:19:57.886Z,1.20
2022-12-31T13:23:16.151Z,1.83
2022-12-31T13:26:31.711Z,1.40
2022-12-31T13:29:35.857Z,1.30
2022-12-31T13:32:49.432Z,2.20
2022-12-31T13:35:55.884Z,1.37
2022-12-31T13:39:01.335Z,1.97
2022-12-31T13:42:15.003Z,1.30
2022-12-31T13:45:30.563Z,2.10
2022-12-31T13:48:37.412Z,2.23
2022-12-31T13:51:44.981Z,1.60
2022-12-31T13:55:11.678Z,3.40
2022-12-31T13:58:35.132Z,1.87
2022-12-31T14:02:08.696Z,1.63
2022-12-31T14:05:25.241Z,1.70
2022-12-31T14:08:27.206Z,1.97
2022-12-31T14:11:53.045Z,3.10
2022-12-31T14:15:24.986Z,1.70
2022-12-31T14:18:39.716Z,4.13
2022-12-31T14:22:04.235Z,1.93
2022-12-31T14:25:21.550Z,3.07
2022-12-31T14:28:32.309Z,2.60
2022-12-31T14:31:56.027Z,2.00
2022-12-31T14:35:28.793Z,1.70
2022-12-31T14:39:01.518Z,2.07
2022-12-31T14:42:28.725Z,2.13
2022-12-31T14:45:54.471Z,2.37
2022-12-31T14:49:12.801Z,2.47
2022-12-31T14:52:35.602Z,2.73
2022-12-31T14:55:39.235Z,3.90
2022-12-31T14:58:42.600Z,2.07
2022-12-31T15:01:46.975Z,3.27
2022-12-31T15:04:48.719Z,2.03
2022-12-31T15:08:02.609Z,2.70
2022-12-31T15:11:35.009Z,4.43
2022-12-31T15:14:48.527Z,2.23
2022-12-31T15:18:04.482Z,3.50
2022-12-31T15:21:38.249Z,3.20
2022-12-31T15:24:47.372Z,3.50
2022-12-31T15:27:49.905Z,2.63
2022-12-31T15:30:53.731Z,2.03
2022-12-31T15:34:02.796Z,3.63
2022-12-31T15:37:26.216Z,3.67
2022-12-31T15:40:29.670Z,1.60
2022-12-31T15:43:40.179Z,2.60
2022-12-31T15:46:43.330Z,2.80
2022-12-31T15:49:47.611Z,2.80
2022-12-31T15:52:55.938Z,3.63
2022-12-31T15:56:00.030Z,2.23
2022-12-31T15:59:05.000Z,3.47
2022-12-31T16:02:27.292Z,2.73
2022-12-31T16:05:29.272Z,2.60
2022-12-31T16:08:35.433Z,3.50
2022-12-31T16:11:40.576Z,2.67
2022-12-31T16:15:07.420Z,2.87
2022-12-31T16:18:20.770Z,1.80
2022-12-31T16:21:34.963Z,2.37
2022-12-31T16:24:48.967Z,2.87
2022-12-31T16:27:58.773Z,1.73
2022-12-31T16:31:07.108Z,4.03
2022-12-31T16:34:14.907Z,7.33
2022-12-31T16:37:21.782Z,2.73
2022-12-31T16:40:24.729Z,2.27
2022-12-31T16:43:40.867Z,3.27
2022-12-31T16:46:42.667Z,3.77
2022-12-31T16:49:51.055Z,3.30
2022-12-31T16:53:00.037Z,3.73
2022-12-31T16:56:08.636Z,3.57
2022-12-31T16:59:40.811Z,2.90
2022-12-31T17:02:46.024Z,3.87
2022-12-31T17:06:07.257Z,4.03
2022-12-31T17:09:20.668Z,2.33
2022-12-31T17:12:27.979Z,3.17
2022-12-31T17:15:42.698Z,2.30
2022-12-31T17:18:45.938Z,3.47
2022-12-31T17:21:48.812Z,1.90
2022-12-31T17:24:51.309Z,2.27
2022-12-31T17:27:58.992Z,1.93
2022-12-31T17:31:02.129Z,2.83
2022-12-31T17:34:12.830Z,2.23
2022-12-31T17:37:19.076Z,3.30
2022-12-31T17:40:50.994Z,3.10
2022-12-31T17:43:57.668Z,3.17
2022-12-31T17:47:07.321Z,3.43
2022-12-31T17:50:19.116Z,2.87
2022-12-31T17:53:21.378Z,2.67
2022-12-31T17:56:23.152Z,2.50
2022-12-31T17:59:29.760Z,2.87
2022-12-31T18:02:31.655Z,2.33
2022-12-31T18:05:33.472Z,3.40
2022-12-31T18:08:35.172Z,3.30
2022-12-31T18:11:38.483Z,2.37
2022-12-31T18:14:41.965Z,2.50
2022-12-31T18:17:44.309Z,3.07
2022-12-31T18:20:46.477Z,2.30
2022-12-31T18:23:48.986Z,2.70
2022-12-31T18:26:51.058Z,3.27
2022-12-31T18:29:52.841Z,2.63
2022-12-31T18:32:54.666Z,4.13
2022-12-31T18:36:11.672Z,2.53
2022-12-31T18:39:13.465Z,2.20
2022-12-31T18:42:17.651Z,2.10
2022-12-31T18:45:20.684Z,2.90
2022-12-31T18:48:22.504Z,4.77
2022-12-31T18:51:31.307Z,2.13
2022-12-31T18:54:33.401Z,2.30
2022-12-31T18:57:35.072Z,2.20
2022-12-31T19:00:38.059Z,3.43
2022-12-31T19:03:39.811Z,2.00
2022-12-31T19:06:42.590Z,2.37
2022-12-31T19:09:45.925Z,2.23
2022-12-31T19:12:48.681Z,2.90
2022-12-31T19:15:52.883Z,3.83
2022-12-31T19:18:54.747Z,2.40
2022-12-31T19:21:56.432Z,2.10
2022-12-31T19:24:58.158Z,3.17
2022-12-31T19:28:04.136Z,2.10
2022-12-31T19:31:05.905Z,1.77
2022-12-31T19:34:07.536Z,2.73
2022-12-31T19:37:15.213Z,3.67
2022-12-31T19:40:24.330Z,4.97
2022-12-31T19:43:26.084Z,2.47
2022-12-31T19:46:35.976Z,2.30
2022-12-31T19:49:37.616Z,5.07
2022-12-31T19:52:39.361Z,2.27
2022-12-31T19:55:41.300Z,2.90
2022-12-31T19:58:43.583Z,2.40
2022-12-31T20:01:45.430Z,3.87
2022-12-31T20:04:47.336Z,2.03
2022-12-31T20:07:49.108Z,5.70
2022-12-31T20:10:50.917Z,2.83
2022-12-31T20:13:54.560Z,2.93
2022-12-31T20:16:56.391Z,2.67
2022-12-31T20:19:58.283Z,3.10
2022-12-31T20:23:00.014Z,2.80
2022-12-31T20:26:02.249Z,2.43
2022-12-31T20:29:03.977Z,2.50
2022-12-31T20:32:05.975Z,2.17
2022-12-31T20:35:07.909Z,2.00
2022-12-31T20:38:09.618Z,3.93
2022-12-31T20:41:17.712Z,2.57
2022-12-31T20:44:19.510Z,3.80
2022-12-31T20:47:21.789Z,2.67
2022-12-31T20:50:23.480Z,3.17
2022-12-31T20:53:25.187Z,3.50
2022-12-31T20:56:29.766Z,3.50
2022-12-31T20:59:31.522Z,4.20
2022-12-31T21:02:41.658Z,2.80
2022-12-31T21:05:52.756Z,2.43
2022-12-31T21:09:11.995Z,3.57
2022-12-31T21:12:34.654Z,7.83
2022-12-31T21:15:36.327Z,3.47
2022-12-31T21:18:38.058Z,2.97
2022-12-31T21:21:39.707Z,2.20
2022-12-31T21:24:41.375Z,2.83
2022-12-31T21:27:43.225Z,3.63
2022-12-31T21:30:44.910Z,3.80
2022-12-31T21:33:47.519Z,4.77
2022-12-31T21:36:49.282Z,3.30
2022-12-31T21:39:51.010Z,2.63
2022-12-31T21:42:52.675Z,4.37
2022-12-31T21:46:05.528Z,3.03
2022-12-31T21:49:07.257Z,3.50
2022-12-31T21:52:27.045Z,3.20
2022-12-31T21:55:47.239Z,3.73
2022-12-31T21:59:15.281Z,3.40
2022-12-31T22:02:35.709Z,3.40
2022-12-31T22:05:38.140Z,2.17
2022-12-31T22:08:41.747Z,3.93
2022-12-31T22:11:43.439Z,3.50
2022-12-31T22:15:15.973Z,3.33
2022-12-31T22:18:06.658Z,4.90
2022-12-31T22:21:19.022Z,3.27
2022-12-31T22:24:21.359Z,3.77
2022-12-31T22:27:29.622Z,5.13
2022-12-31T22:30:32.256Z,5.20
2022-12-31T22:33:34.053Z,5.40
2022-12-31T22:36:35.755Z,4.87
2022-12-31T22:39:43.427Z,2.97
2022-12-31T22:42:46.196Z,2.93
2022-12-31T22:45:47.957Z,4.10
2022-12-31T22:48:51.682Z,3.33
2022-12-31T22:52:08.755Z,3.47
2022-12-31T22:55:10.730Z,4.83
2022-12-31T22:58:15.487Z,2.30
2022-12-31T23:01:23.559Z,3.40
2022-12-31T23:04:25.517Z,4.70
2022-12-31T23:07:27.286Z,7.40
2022-12-31T23:10:49.488Z,61.37
2022-12-31T23:14:10.109Z,71.33
2022-12-31T23:17:36.638Z,10.50
2022-12-31T23:20:57.104Z,13.60
2022-12-31T23:23:58.779Z,12.80
2022-12-31T23:27:00.593Z,11.23
2022-12-31T23:30:02.354Z,25.10
2022-12-31T23:33:04.174Z,11.70
2022-12-31T23:36:06.961Z,9.07
2022-12-31T23:39:08.633Z,9.87
2022-12-31T23:42:10.849Z,8.53
2022-12-31T23:45:12.745Z,5.60
2022-12-31T23:48:14.428Z,8.67
2022-12-31T23:51:16.156Z,7.67
2022-12-31T23:54:18.067Z,4.97
2022-12-31T23:57:19.972Z,5.80
